logo
App data

Galaxy Admirals

Galaxy Admirals is a multiplayer turn-based cosmic strategy with pretty innovative and challenging gameplay. Improve your command skills with AI and conquer the whole universe by fighting with real players.
Store | Hub | SteamDB
Developer: Jetdogs Studios Publisher: Jetdogs Studios
Genre: Strategy
Languages: English, Russian
Tags: Strategy (27), Turn-Based Strategy (7), Turn-Based (6), Early Access (6), Space (6), 2D (5), Hex Grid (5)
Category: Single-player, Multi-player, Cross-Platform Multiplayer, Steam Achievements, Steam Trading Cards, Stats, Steam Leaderboards
Release date: Jan 17, 2017 (previously in Early Access)
Price: $1.99
Score rank: 56% Userscore: 82% Old userscore: 85%
Owners: 50,000 .. 100,000
Followers: 758
Peak concurrent players yesterday: 7
Playtime in the last 2 weeks: 00:20 (average) 00:20 (median)
Playtime total: 04:55 (average) 04:53 (median)

Steam Spy is still in beta, so expect major bugs.

Owners data:

Access restricted.

This feature is only available to users with special access rights. Sorry.

If you want to proceed, you need to register or log in first and then back Steam Spy on Patreon. Look for Indie or Pro pledge.

Don't forget to use the same email as on Steam Spy!

Audience in 2 weeks:

Access restricted.

This feature is only available to users with special access rights. Sorry.

If you want to proceed, you need to register or log in first and then back Steam Spy on Patreon. Look for Indie or Pro pledge.

Don't forget to use the same email as on Steam Spy!

Peak daily concurrent players:

CCU data courtesy of SteamDB. Used with permission.

Hourly concurrent players:

YouTube:

The views data is based on top 50 videos uploaded last week. Actual number of views might be more than the number shown.

The displayed number of videos uploaded yesterday is limited to 50, so if there were more videos uploaded, the number will still show 50.

If the game has commonly used word as its name (like "FEAR" or "Volume") its number of Youtube views might be wrong.

Games similar to this one:

# Game Release date
Price
Score rank
(Userscore / Metascore)
Owners
Players
Playtime (Median)
1 Little Big Adventure 2 Oct 20, 2015 $3.9999% (98%)20,000 .. 50,0000%00:00 (00:00)
2 Dungeon Warfare Nov 4, 2015 $9.9997% (97%)20,000 .. 50,0002.38%00:58 (00:38)
3 Seven Kingdoms: Ancient Adversaries Jun 8, 1998 $5.99N/A (N/A)0 .. 20,0000%00:00 (00:00)
4 Militia Dec 2, 2015 $5.9995% (96%)0 .. 20,0000%00:00 (00:00)
5 Voodoo Vince: Remastered Apr 18, 2017 $14.9995% (96%/63%)0 .. 20,0000%00:00 (00:00)
6 Defend The Highlands Nov 6, 2015 $9.9995% (96%)100,000 .. 200,0000%00:00 (00:00)
7 Imperium Galactica Mar 1, 1997 $4.99N/A (N/A)0 .. 20,0000%00:00 (00:00)
8 Templar Battleforce Sep 21, 2015 $9.9993% (95%)20,000 .. 50,0000%00:00 (00:00)
9 Supercharged Robot VULKAISER Jun 4, 2015 $4.9993% (95%)20,000 .. 50,0000%00:00 (00:00)
10 Hegemony Gold: Wars of Ancient Greece Mar 30, 2012 $14.9993% (95%)20,000 .. 50,0000%00:00 (00:00)
11 Flywrench Aug 24, 2015 $6.9993% (95%)0 .. 20,0000%00:00 (00:00)
12 Chicken Invaders 2 Mar 4, 2016 $3.9993% (95%)0 .. 20,0004.55%04:40 (01:33)
13 Stick it to The Man! Dec 13, 2013 $7.9990% (94%/83%)20,000 .. 50,0000%00:00 (00:00)
14 Neon Chrome Apr 28, 2016 $14.9990% (94%/74%)200,000 .. 500,0000.81%00:16 (00:15)
15 ESCHATOS Sep 18, 2015 $14.9990% (94%)0 .. 20,0000%00:00 (00:00)
16 Star Trek: Judgment Rites May 8, 2015 $9.99N/A (N/A)0 .. 20,0000%00:00 (00:00)
17 Outcast 1.1 Dec 18, 2014 $5.9990% (94%)20,000 .. 50,0000%00:00 (00:00)
18 PixelJunk Shooter Nov 11, 2013 $8.9990% (94%/73%)100,000 .. 200,0000.31%04:32 (01:30)
19 Audio Arena Jul 25, 2016 $6.99N/A (N/A)0 .. 20,0000%00:00 (00:00)
20 Adventure in the Tower of Flight Dec 23, 2015 $4.9990% (94%)0 .. 20,0000%00:00 (00:00)
21 Majesty Gold HD Mar 23, 2001 $9.9990% (94%)100,000 .. 200,0000%00:00 (00:00)
22 Gold Rush! Classic Dec 23, 1988 $2.9990% (94%)200,000 .. 500,0000.54%03:09 (04:06)
23 Run or Die Dec 11, 2014 $4.9987% (93%)0 .. 20,0000%00:00 (00:00)
24 Eufloria HD Oct 14, 2014 $14.9987% (93%)200,000 .. 500,0000%00:00 (00:00)
25 Pharaoh Rebirth+ Mar 17, 2016 $9.9987% (93%)0 .. 20,0006.67%04:32 (01:30)
26 Handsome Mr. Frog Aug 8, 2016 $0.9987% (93%)0 .. 20,0000%00:00 (00:00)
27 Kick Ass Commandos Nov 17, 2016 $9.9987% (93%)20,000 .. 50,0000%00:00 (00:00)
28 Kalimba Apr 22, 2015 $9.9987% (93%/81%)0 .. 20,0000%00:00 (00:00)
29 Major Mayhem Feb 24, 2014 $4.99N/A (N/A)20,000 .. 50,0000%00:00 (00:00)
30 Anarcute Jul 12, 2016 $14.9987% (93%/79%)0 .. 20,0000%00:00 (00:00)
31 Super Trench Attack! Jul 24, 2014 $4.9987% (93%)50,000 .. 100,0000%00:00 (00:00)
32 Bleed Jul 3, 2013 $1.9987% (93%)100,000 .. 200,0001.09%04:57 (03:18)
33 Ys VI: The Ark of Napishtim Apr 28, 2015 $19.9984% (92%/76%)50,000 .. 100,0000%00:00 (00:00)
34 Ittle Dew Jul 23, 2013 $9.9984% (92%/67%)100,000 .. 200,0000%00:00 (00:00)
35 Death Ray Manta SE Sep 17, 2015 $1.9984% (92%)20,000 .. 50,0000%00:00 (00:00)
36 Shmups Skill Test シューティング技能検定 Jun 9, 2016 $4.99N/A (N/A)0 .. 20,0000%00:00 (00:00)
37 Knightmare Tower Jun 16, 2014 $3.9984% (92%)0 .. 20,0000%00:00 (00:00)
38 Great Big War Game Aug 28, 2012 $6.99N/A (N/A)0 .. 20,0000%00:00 (00:00)
39 Darknet Jun 8, 2017 $14.9984% (92%)0 .. 20,0000%00:00 (00:00)
40 Miracle Fly Oct 26, 2015 $7.9984% (92%)20,000 .. 50,0000%00:00 (00:00)
41 Tallowmere Mar 3, 2015 $3.9984% (92%)20,000 .. 50,0002.44%00:29 (00:09)
42 Counter Spell Oct 5, 2015 $9.9984% (92%)0 .. 20,00016.67%00:07 (00:02)
43 Wars and Warriors: Joan of Arc Feb 7, 2004 $6.9984% (92%/60%)0 .. 20,0000%00:00 (00:00)
44 Below Kryll Sep 7, 2015 $4.9980% (91%)0 .. 20,0000%00:00 (00:00)
45 The Juicer Sep 6, 2012 $0.9980% (91%)20,000 .. 50,0000%00:00 (00:00)
46 Momodora III Jul 1, 2014 $1.9980% (91%)50,000 .. 100,0002.88%02:09 (02:09)
47 Super Cyborg Jul 8, 2015 $4.9980% (91%)20,000 .. 50,0000%00:00 (00:00)
48 Battle Academy 2: Eastern Front Sep 12, 2014 $39.9980% (91%/78%)0 .. 20,0000%00:00 (00:00)
49 Skulls of the Shogun Jul 29, 2013 $9.9980% (91%/72%)100,000 .. 200,0000.3%05:03 (01:41)
50 Clash of Puppets Dec 16, 2014 $4.9980% (91%)0 .. 20,0000%00:00 (00:00)
51 Kohan II: Kings of War Sep 21, 2004 $9.9980% (91%/81%)20,000 .. 50,0000%00:00 (00:00)
52 Angry Video Game Nerd II: ASSimilation Mar 29, 2016 $9.9980% (91%)20,000 .. 50,0000%00:00 (00:00)
53 Warrior Kings: Battles Sep 30, 2003 $9.9980% (91%/64%)0 .. 20,0007.14%00:56 (00:18)
54 Mad Bullets Jun 10, 2016 $2.9980% (91%)0 .. 20,0000%00:00 (00:00)
55 Apocalypse: Party's Over May 30, 2016 $4.9980% (91%)0 .. 20,0000%00:00 (00:00)
56 Flashpoint Campaigns: Red Storm Player's Edition Oct 9, 2013 $49.9980% (91%)0 .. 20,0000%00:00 (00:00)
57 Blue Estate The Game Apr 8, 2015 $12.9980% (91%/59%)50,000 .. 100,0000%00:00 (00:00)
58 Codename: Panzers, Phase Two Jul 21, 2005 $14.9980% (91%/80%)0 .. 20,0000%00:00 (00:00)
59 Weird Hero Nov 18, 2016 $3.9980% (91%)0 .. 20,0000%00:00 (00:00)
60 Dandy: Or a Brief Glimpse Into the Life of the Candy Alchemist Aug 4, 2015 $9.99N/A (N/A)0 .. 20,0000%00:00 (00:00)
61 Near Death Aug 2, 2016 $14.9980% (91%/70%)20,000 .. 50,0000%00:00 (00:00)
62 Swords and Soldiers HD Dec 2, 2010 $9.9977% (90%)100,000 .. 200,0000.08%09:50 (06:33)
63 Zombo Buster Rising Oct 2, 2016 $1.9977% (90%)0 .. 20,0000%00:00 (00:00)
64 Valley Aug 24, 2016 $19.9977% (90%)200,000 .. 500,0001.32%00:10 (00:09)
65 MoonBase Commander Aug 13, 2002 $5.9977% (90%/77%)0 .. 20,0000%00:00 (00:00)
66 Khet 2.0 Oct 1, 2014 $2.4977% (90%)50,000 .. 100,0000%00:00 (00:00)
67 Amaranthine Apr 6, 2016 $2.9977% (90%)0 .. 20,0000%00:00 (00:00)
68 Earth Defense Force: Insect Armageddon Dec 14, 2011 $9.9977% (90%/69%)50,000 .. 100,0000%00:00 (00:00)
69 Ace of Seafood Apr 8, 2016 $11.9977% (90%)0 .. 20,0000%00:00 (00:00)
70 Headlander Jul 25, 2016 $19.9977% (90%/74%)50,000 .. 100,0000.38%03:56 (01:18)
71 Planet of the Eyes Aug 24, 2015 $9.9977% (90%/66%)50,000 .. 100,0000.79%01:41 (00:33)
72 Sneaky Sneaky Nov 12, 2014 $4.9977% (90%/63%)0 .. 20,0000%00:00 (00:00)
73 Wild Guns Reloaded Jul 11, 2017 $14.9977% (90%)0 .. 20,0000%00:00 (00:00)
74 Warhammer 40,000: Dawn of War – Winter Assault Jan 1, 2006 $12.9977% (90%)500,000 .. 1,000,0000.14%00:12 (00:04)
75 Superstatic Sep 15, 2015 $4.99N/A (N/A)0 .. 20,0000%00:00 (00:00)
76 RIVE: Wreck, Hack, Die, Retry! Sep 13, 2016 $14.9977% (90%)200,000 .. 500,0000.42%00:01 (00:00)
77 Lethe - Episode One Aug 1, 2016 $14.9974% (89%)0 .. 20,0000%00:00 (00:00)
78 Reverse Crawl Sep 24, 2015 $5.9974% (89%)20,000 .. 50,0000%00:00 (00:00)
79 Fort Meow Jun 25, 2015 $7.9974% (89%)0 .. 20,0000%00:00 (00:00)
80 Silent Storm Gold Edition Sep 9, 2004 $9.9974% (89%/83%)100,000 .. 200,0000%00:00 (00:00)
81 CastleStorm Jul 29, 2013 $9.9974% (89%/73%)100,000 .. 200,0000%00:00 (00:00)
82 Death's Hangover Jan 20, 2017 $4.9974% (89%)20,000 .. 50,0000%00:00 (00:00)
83 Armed with Wings: Rearmed Jun 1, 2017 $9.9974% (89%)20,000 .. 50,0000%00:00 (00:00)
84 Tcheco in the Castle of Lucio Jun 22, 2015 $0.9974% (89%)50,000 .. 100,0000.43%05:00 (01:40)
85 Atom Zombie Smasher Mar 14, 2011 $9.9971% (88%/75%)200,000 .. 500,0000%00:00 (00:00)
86 TRON 2.0 Aug 22, 2003 $9.9971% (88%/84%)20,000 .. 50,0001.39%00:01 (00:00)
87 Earn to Die 2 May 5, 2016 $4.9971% (88%)20,000 .. 50,0000%00:00 (00:00)
88 Kohan: Ahriman's Gift Nov 6, 2001 $9.99N/A (N/A/79%)0 .. 20,0000%00:00 (00:00)
89 Explosionade Sep 23, 2015 $3.99N/A (N/A)0 .. 20,0001.85%01:15 (00:25)
90 Mr. Shifty Apr 13, 2017 $14.9971% (88%)50,000 .. 100,0000.69%03:13 (03:12)
91 Viking Squad Oct 4, 2016 $14.9971% (88%)0 .. 20,0000%00:00 (00:00)
92 Anodyne Mar 22, 2013 $9.9971% (88%/75%)100,000 .. 200,0000.38%03:33 (01:11)
93 Battlepillars Gold Edition Apr 28, 2014 $4.9971% (88%)20,000 .. 50,0001.64%02:56 (00:58)
94 Greed Corp Dec 10, 2010 $9.9971% (88%/76%)200,000 .. 500,0000%00:00 (00:00)
95 The Fall May 30, 2014 $9.9971% (88%/76%)200,000 .. 500,0000.29%00:18 (00:06)
96 Spider: Rite of the Shrouded Moon Aug 6, 2015 $9.99N/A (N/A)20,000 .. 50,0000%00:00 (00:00)
97 Spooky Cats Jun 4, 2015 $2.9968% (87%)20,000 .. 50,0000%00:00 (00:00)
98 Spectromancer Oct 15, 2008 $9.9968% (87%)20,000 .. 50,0000%00:00 (00:00)
99 Blacksea Odyssey Jun 1, 2016 $9.9968% (87%/74%)20,000 .. 50,0002.63%01:04 (00:21)
100 Lethal VR Nov 8, 2016 $14.9968% (87%/66%)0 .. 20,0000%00:00 (00:00)
101 Syrian Warfare Feb 21, 2017 $14.9968% (87%)50,000 .. 100,0000%00:00 (00:00)
102 Rush for Berlin Gold Oct 29, 2009 $4.9968% (87%/76%)20,000 .. 50,0000%00:00 (00:00)
103 Time Rifters Oct 21, 2014 $9.9968% (87%)0 .. 20,0005.88%01:53 (01:15)
104 Sang-Froid - Tales of Werewolves Apr 5, 2013 Free68% (87%/79%)200,000 .. 500,0000%00:00 (00:00)
105 The Haunted: Hells Reach Oct 24, 2011 $8.9968% (87%/51%)50,000 .. 100,0000%00:00 (00:00)
106 Shadow Blade: Reload Aug 10, 2015 $5.2468% (87%/70%)20,000 .. 50,0000.94%00:02 (00:00)
107 The Tiny Tale 2 Jan 30, 2015 $6.99N/A (N/A)0 .. 20,0000%00:00 (00:00)
108 Avoid - Sensory Overload Apr 8, 2014 $4.9968% (87%)20,000 .. 50,0002.22%06:44 (02:14)
109 Supreme Commander Feb 20, 2007 $12.9966% (86%/86%)500,000 .. 1,000,0000.39%02:48 (02:48)
110 Arcane Sorcery Sep 15, 2015 $4.99N/A (N/A)0 .. 20,0000%00:00 (00:00)
111 Ballistic Tanks Sep 20, 2016 $4.9966% (86%)0 .. 20,0005.56%00:04 (00:01)
112 The Way May 20, 2016 $2.9966% (86%/67%)50,000 .. 100,0002.5%01:40 (01:52)
113 Civilization IV: Warlords Jul 24, 2006 $4.9966% (86%/84%)1,000,000 .. 2,000,0000%00:00 (00:00)
114 N2O: Nitrous Oxide Jun 29, 2015 $4.99N/A (N/A)0 .. 20,0000%00:00 (00:00)
115 NOBUNAGA'S AMBITION: Souzou (Traditional Chinese version) Aug 2014 $24.9966% (86%)20,000 .. 50,0005.26%01:52 (00:37)
116 Super Chibi Knight Jun 24, 2015 $4.9966% (86%)20,000 .. 50,0000%00:00 (00:00)
117 Meltdown Jun 5, 2014 $6.9966% (86%)50,000 .. 100,0000.83%07:07 (02:22)
118 Star Ruler Sep 20, 2010 $9.9966% (86%)100,000 .. 200,0000%00:00 (00:00)
119 Bullet Sorrow VR Apr 17, 2017 $19.9966% (86%)0 .. 20,0000%00:00 (00:00)
120 Command: Northern Inferno Oct 22, 2015 $19.99N/A (N/A)0 .. 20,0000%00:00 (00:00)
121 Slash or Die Jun 3, 2016 $2.9966% (86%)20,000 .. 50,0000%00:00 (00:00)
122 Steel Rain Dec 3, 2015 $9.9966% (86%)0 .. 20,0000%00:00 (00:00)
123 Executive Assault Jul 17, 2015 $12.9966% (86%)20,000 .. 50,0001.59%01:06 (00:22)
124 ENSLAVED: Odyssey to the West Premium Edition Oct 24, 2013 $19.9963% (85%/70%)200,000 .. 500,0000.52%04:13 (04:13)
125 Last Knight: Rogue Rider Edition Oct 3, 2014 $1.5963% (85%)20,000 .. 50,0000%00:00 (00:00)
126 Delta Force 2 Oct 31, 1999 $4.9963% (85%)20,000 .. 50,0002.04%00:06 (00:02)
127 Magnifico Dec 2, 2014 $4.9963% (85%)50,000 .. 100,0000%00:00 (00:00)
128 Western 1849 Reloaded Feb 10, 2017 $4.9963% (85%)0 .. 20,0000%00:00 (00:00)
129 Dustoff Heli Rescue Mar 6, 2015 $3.9963% (85%)20,000 .. 50,0000%00:00 (00:00)
130 Ghost Master Aug 23, 2003 $4.9963% (85%/81%)100,000 .. 200,0000.9%01:05 (00:43)
131 Interloper May 21, 2015 Free63% (85%/77%)50,000 .. 100,0000%00:00 (00:00)
132 ShootMania Storm Apr 10, 2013 $19.9963% (85%/76%)50,000 .. 100,0001.43%00:43 (00:14)
133 Gurgamoth Feb 16, 2016 $4.9963% (85%)50,000 .. 100,0000%00:00 (00:00)
134 Rooks Keep Dec 5, 2014 $7.9963% (85%)20,000 .. 50,0000%00:00 (00:00)
135 Age of Wonders Shadow Magic Oct 2010 $9.9963% (85%/82%)100,000 .. 200,0000%00:00 (00:00)
136 VelocityUltra Dec 12, 2013 $9.9963% (85%)50,000 .. 100,0000.66%00:16 (00:05)
137 Super Furball May 13, 2014 $3.99N/A (N/A)0 .. 20,0000%00:00 (00:00)
138 CRYPTARK Jun 20, 2017 $14.9961% (84%/80%)50,000 .. 100,0000%00:00 (00:00)
139 Fat Chicken Dec 4, 2014 $9.99N/A (N/A)0 .. 20,0000%00:00 (00:00)
140 Sudden Strike 2 Gold Aug 30, 2002 $5.9961% (84%)0 .. 20,0000%00:00 (00:00)
141 The Men of Yoshiwara: Kikuya Oct 15, 2015 $29.9961% (84%)0 .. 20,0000%00:00 (00:00)
142 Battle Group 2 Jun 13, 2014 $7.9961% (84%)50,000 .. 100,0000%00:00 (00:00)
143 Demons with Shotguns Apr 25, 2016 $9.9961% (84%)0 .. 20,0000%00:00 (00:00)
144 Foresight Nov 28, 2014 $4.99N/A (N/A)0 .. 20,0000%00:00 (00:00)
145 Neon Shadow Aug 25, 2016 $4.9961% (84%)0 .. 20,0000%00:00 (00:00)
146 Act of War: Direct Action Mar 14, 2005 $1.1961% (84%/82%)20,000 .. 50,0000%00:00 (00:00)
147 Legend (1994) Apr 1, 1994 $4.99N/A (N/A)0 .. 20,0000%00:00 (00:00)
148 NOBUNAGA'S AMBITION: Sphere of Influence Sep 1, 2015 $59.9958% (83%/70%)20,000 .. 50,0000%00:00 (00:00)
149 Advanced Tactics Gold Apr 12, 2011 $29.9958% (83%)0 .. 20,0000%00:00 (00:00)
150 Weapon of Choice Sep 23, 2015 $4.99N/A (N/A)0 .. 20,0000%00:00 (00:00)
151 Orbital Gear Aug 7, 2014 $9.9958% (83%/59%)200,000 .. 500,0000.19%00:03 (00:01)
152 TY the Tasmanian Tiger 4 Sep 17, 2015 $5.9958% (83%)20,000 .. 50,0000%00:00 (00:00)
153 Ace of Protectors Jun 27, 2016 $1.9958% (83%)20,000 .. 50,0000%00:00 (00:00)
154 GIBZ Apr 7, 2017 $3.1958% (83%)0 .. 20,0004.35%04:28 (01:29)
155 Eador: Genesis Aug 7, 2009 $5.9958% (83%)50,000 .. 100,0000%00:00 (00:00)
156 Crush Your Enemies Jul 13, 2016 $9.9958% (83%/63%)20,000 .. 50,0006.52%32:27 (32:01)
157 Bulletstorm: Full Clip Edition Apr 7, 2017 $39.9956% (82%/76%)50,000 .. 100,0002.21%01:21 (01:20)
158 PixelJunk Shooter Ultimate Oct 21, 2015 $9.9956% (82%)0 .. 20,0000%00:00 (00:00)
159 Shadow Ops: Red Mercury Sep 17, 2004 $6.9956% (82%/61%)20,000 .. 50,0000%00:00 (00:00)
160 Blade Arcus from Shining: Battle Arena Jul 28, 2016 $29.9956% (82%)0 .. 20,0000%00:00 (00:00)
161 Square Brawl Oct 22, 2015 $4.9956% (82%)0 .. 20,0003.03%00:03 (00:01)
162 Yomi May 8, 2015 $14.9956% (82%)0 .. 20,0000%00:00 (00:00)
163 Decisive Campaigns: The Blitzkrieg from Warsaw to Paris Aug 26, 2010 $39.99N/A (N/A)0 .. 20,0000%00:00 (00:00)
164 Rack N Ruin Sep 1, 2015 $9.9956% (82%)0 .. 20,0000%00:00 (00:00)
165 Fantasy Wars Aug 6, 2010 $4.9954% (81%/67%)50,000 .. 100,0000%00:00 (00:00)
166 Toadled Sep 22, 2016 $0.9954% (81%)50,000 .. 100,0000%00:00 (00:00)
167 Gun Metal Sep 23, 2003 $1.0154% (81%)200,000 .. 500,0000%00:00 (00:00)
168 Tiki Man Jun 4, 2015 $0.9954% (81%)20,000 .. 50,0000.8%00:01 (00:00)
169 Conflict Desert Storm Sep 13, 2002 $6.9954% (81%/56%)20,000 .. 50,0000%00:00 (00:00)
170 ROD: Revolt Of Defense Aug 12, 2016 $0.9954% (81%)20,000 .. 50,0000%00:00 (00:00)
171 In Verbis Virtus Apr 3, 2015 $19.9954% (81%)50,000 .. 100,0001.87%00:23 (00:15)
172 Concealed Intent Aug 2, 2016 $14.99N/A (N/A)0 .. 20,0000%00:00 (00:00)
173 htoL#NiQ: The Firefly Diary / htoL#NiQ-ホタルノニッキ- May 18, 2016 $9.9954% (81%)20,000 .. 50,0003.13%00:56 (00:18)
174 Supreme Ruler 2020 Gold Jun 17, 2008 $9.9954% (81%/65%)50,000 .. 100,0000%00:00 (00:00)
175 rymdkapsel Jan 30, 2014 $7.9951% (80%/77%)0 .. 20,0000%00:00 (00:00)
176 Zeno Clash 2 Apr 30, 2013 $14.9951% (80%)200,000 .. 500,0000.76%00:22 (00:29)
177 Disciples Sacred Lands Gold Oct 4, 1999 $7.9951% (80%)20,000 .. 50,0000%00:00 (00:00)
178 Legends of Callasia Jun 10, 2016 $14.9951% (80%)50,000 .. 100,0000%00:00 (00:00)
179 Star Wolves 3: Civil War Mar 2, 2010 $4.9951% (80%)100,000 .. 200,0000.44%00:22 (00:07)
180 Junk Jack Nov 30, 2016 $14.9951% (80%)0 .. 20,0000%00:00 (00:00)
181 Bloodsports.TV Mar 30, 2015 $9.9951% (80%/69%)100,000 .. 200,0001.89%01:46 (01:26)
182 She Wants Me Dead May 13, 2016 $7.9951% (80%)0 .. 20,0000%00:00 (00:00)
183 Graviteam Tactics: Operation Star Mar 22, 2012 $29.9951% (80%)20,000 .. 50,0000%00:00 (00:00)
184 Locoland Nov 22, 2003 $4.9951% (80%)0 .. 20,0005%01:25 (00:28)
185 Perimeter May 21, 2004 $3.9951% (80%/77%)20,000 .. 50,0000%00:00 (00:00)
186 Romance of the Three Kingdoms Ⅴ with Power Up Kit / 三國志Ⅴ with パワーアップキット Apr 18, 2017 $19.99N/A (N/A)0 .. 20,0000%00:00 (00:00)
187 Run Rabbit Run Mar 31, 2016 $3.9951% (80%)0 .. 20,0000%00:00 (00:00)
188 Defense Zone Jul 14, 2014 $2.99N/A (N/A)0 .. 20,0000%00:00 (00:00)
189 Conquest of Elysium 3 Oct 24, 2012 $9.9951% (80%)20,000 .. 50,0000%00:00 (00:00)
190 Envoy Mar 17, 2016 $4.9951% (80%)50,000 .. 100,0000%00:00 (00:00)
191 Child Of Ault Jan 24, 2017 $9.99N/A (N/A)0 .. 20,0000%00:00 (00:00)
192 7,62 High Calibre Aug 24, 2007 $4.9951% (80%)20,000 .. 50,0000%00:00 (00:00)
193 Enemy Mind Jun 6, 2014 $9.9951% (80%)200,000 .. 500,0000%00:00 (00:00)
194 Hail to the King: Deathbat Oct 30, 2014 $5.9951% (80%)0 .. 20,0000%00:00 (00:00)
195 Monday Night Combat Jan 24, 2011 $4.9951% (80%/82%)200,000 .. 500,0000%00:00 (00:00)
196 Fleet Command May 15, 1999 $9.9951% (80%)50,000 .. 100,0000%00:00 (00:00)
197 Trigger Runners Mar 3, 2016 $1.9951% (80%)0 .. 20,0000%00:00 (00:00)
198 Caster Mar 19, 2009 $1.9949% (79%)200,000 .. 500,0000%00:00 (00:00)
199 Advent Rising Aug 9, 2005 $9.9949% (79%/70%)50,000 .. 100,0000.96%02:06 (00:42)
200 Vietnam ‘65 Mar 5, 2015 $9.9949% (79%/81%)20,000 .. 50,0000%00:00 (00:00)
201 Pharaonic Apr 28, 2016 $14.9949% (79%)0 .. 20,0000%00:00 (00:00)
202 Ironcast Mar 26, 2015 $14.9949% (79%/75%)20,000 .. 50,0000%00:00 (00:00)
203 Anomaly 2 May 15, 2013 $14.9949% (79%/77%)200,000 .. 500,0000.74%01:26 (01:52)
204 Fate of the World Feb 28, 2011 $9.9949% (79%/70%)50,000 .. 100,0000%00:00 (00:00)
205 Interplanetary May 12, 2015 N/A49% (79%)100,000 .. 200,0001%01:04 (00:52)
206 The Legend of Dark Witch Dec 1, 2015 $4.9949% (79%)20,000 .. 50,0000%00:00 (00:00)
207 David. Mar 14, 2014 $1.9949% (79%)50,000 .. 100,0000%00:00 (00:00)
208 Protoshift Jan 15, 2016 $0.9949% (79%)0 .. 20,0000%00:00 (00:00)
209 Fortified Feb 3, 2016 $14.9949% (79%)500,000 .. 1,000,0000.45%00:49 (01:00)
210 Umihara Kawase Shun: Steam Edition Nov 24, 2015 $11.99N/A (N/A)0 .. 20,0000%00:00 (00:00)
211 Making History: The Calm & the Storm Mar 13, 2007 $4.9949% (79%/70%)50,000 .. 100,0000%00:00 (00:00)
212 Demolition Inc. Sep 19, 2011 $5.9949% (79%)50,000 .. 100,0000%00:00 (00:00)
213 Nuclear Dawn Sep 26, 2011 $9.9949% (79%/71%)200,000 .. 500,0000.41%00:30 (00:20)
214 Age of Gladiators Feb 25, 2016 $9.9949% (79%)20,000 .. 50,0000%00:00 (00:00)
215 TASTEE: Lethal Tactics May 10, 2016 $14.9949% (79%)20,000 .. 50,0000%00:00 (00:00)
216 Gatling Gears Aug 30, 2011 $9.9949% (79%)20,000 .. 50,0002.78%00:14 (00:04)
217 Defense Zone 3 Ultra HD Dec 14, 2016 $2.9949% (79%)20,000 .. 50,0000%00:00 (00:00)
218 TRON RUN/r Feb 16, 2016 $19.9949% (79%)0 .. 20,0000%00:00 (00:00)
219 Bet On Soldier Sep 26, 2005 $7.9949% (79%)20,000 .. 50,0000%00:00 (00:00)
220 Deadly 30 Jan 8, 2014 $4.9947% (78%)100,000 .. 200,0000.78%04:33 (01:31)
221 Cultures - 8th Wonder of the World Mar 26, 2015 $4.9947% (78%)50,000 .. 100,0000%00:00 (00:00)
222 Strike Suit Zero: Director's Cut Apr 8, 2014 $19.9947% (78%)20,000 .. 50,0000%00:00 (00:00)
223 Dead Rising 2: Off the Record Oct 11, 2011 $19.9947% (78%/66%)200,000 .. 500,0000.17%05:02 (01:40)
224 Klang Sep 22, 2016 $14.9947% (78%/71%)0 .. 20,0000%00:00 (00:00)
225 Mold on Pizza Sep 25, 2015 $5.9947% (78%)0 .. 20,0000%00:00 (00:00)
226 After The End: The Harvest Jun 2, 2017 $4.9947% (78%)20,000 .. 50,0000%00:00 (00:00)
227 Tank Destroyer Mar 9, 2017 $2.9947% (78%)20,000 .. 50,0001.11%00:08 (00:02)
228 Zombie Party Jun 10, 2016 $9.9947% (78%)100,000 .. 200,0002.27%00:19 (00:06)
229 Zombie Killtime Aug 4, 2015 $1.99N/A (N/A)0 .. 20,0000%00:00 (00:00)
230 Afghanistan '11 Mar 23, 2017 $29.9947% (78%)0 .. 20,0000%00:00 (00:00)
231 Velocity 2X Aug 19, 2015 $19.9947% (78%)50,000 .. 100,0001.35%00:01 (00:00)
232 Aeon Command Jul 3, 2014 $2.9947% (78%)20,000 .. 50,0001.19%00:01 (00:00)
233 Age of Wonders Oct 2010 $5.9947% (78%)100,000 .. 200,0000%00:00 (00:00)
234 PAC-MAN and the Ghostly Adventures Oct 29, 2013 $19.9947% (78%)0 .. 20,0000%00:00 (00:00)
235 Starscape Mar 27, 2003 $7.9947% (78%)0 .. 20,0004.76%00:07 (00:02)
236 Anomaly Warzone Earth Mobile Campaign Nov 6, 2013 $4.9945% (77%)100,000 .. 200,0001.81%01:22 (01:58)
237 Warhammer 40,000: Armageddon Nov 26, 2014 $39.9945% (77%/68%)20,000 .. 50,0005%11:09 (03:43)
238 Dominions 3: The Awakening Sep 10, 2013 $19.9945% (77%/82%)0 .. 20,0000%00:00 (00:00)
239 Making History II: The War of the World Jun 22, 2010 $14.9945% (77%/38%)20,000 .. 50,0000%00:00 (00:00)
240 Heroes of Might & Magic V: Hammers of Fate Nov 14, 2006 $9.9945% (77%/66%)200,000 .. 500,0001.16%00:33 (00:21)
241 King of Dragon Pass Jul 28, 2015 $11.9945% (77%)20,000 .. 50,0000%00:00 (00:00)
242 Curse of the Crescent Isle DX Aug 21, 2015 $0.9945% (77%)0 .. 20,0000%00:00 (00:00)
243 Sky Gamblers: Storm Raiders Jan 7, 2015 $9.9945% (77%)0 .. 20,0000%00:00 (00:00)
244 Ninjahtic Jul 6, 2015 $1.9945% (77%)0 .. 20,0000%00:00 (00:00)
245 McDROID Sep 5, 2014 $9.9945% (77%)0 .. 20,0000%00:00 (00:00)
246 The Political Machine 2016 Feb 4, 2016 $9.9945% (77%)50,000 .. 100,0000%00:00 (00:00)
247 Blue Effect VR Sep 29, 2016 $14.9945% (77%)0 .. 20,0000%00:00 (00:00)
248 Starchaser: Priestess of the Night Sky Jul 24, 2015 $9.99N/A (N/A)0 .. 20,0000%00:00 (00:00)
249 A Blind Legend Apr 7, 2016 $6.9945% (77%)0 .. 20,0000%00:00 (00:00)
250 Star Realms Mar 8, 2016 Free43% (76%)100,000 .. 200,0001.72%03:07 (02:04)
251 Deadlings: Rotten Edition Nov 11, 2014 $3.9943% (76%)50,000 .. 100,0000%00:00 (00:00)
252 Battlezone Gold Edition May 11, 2017 $34.9943% (76%)0 .. 20,0000%00:00 (00:00)
253 Olympia Rising Jul 23, 2015 $4.9943% (76%)0 .. 20,0000%00:00 (00:00)
254 BloodRayne Sep 9, 2003 $9.9943% (76%/65%)50,000 .. 100,0000%00:00 (00:00)
255 Corgi Warlock Dec 3, 2015 $1.9943% (76%)20,000 .. 50,0000%00:00 (00:00)
256 Jim Power -The Lost Dimension Dec 10, 1993 $4.99N/A (N/A)0 .. 20,0000%00:00 (00:00)
257 Mysterium: A Psychic Clue Game Jan 12, 2017 $6.9943% (76%)50,000 .. 100,0001.4%05:22 (03:34)
258 Warlords Battlecry III May 17, 2004 $9.9943% (76%/73%)20,000 .. 50,0000%00:00 (00:00)
259 Cashtronauts Sep 1, 2016 $2.9943% (76%)0 .. 20,0000%00:00 (00:00)
260 Dangerous Waters Feb 7, 2006 $14.9943% (76%/82%)50,000 .. 100,0000%00:00 (00:00)
261 Rocket Knight May 11, 2010 $14.9943% (76%/63%)0 .. 20,0000%00:00 (00:00)
262 A.R.E.S. Extinction Agenda EX Oct 3, 2014 $9.9943% (76%)0 .. 20,0002.78%00:06 (00:02)
263 Vector Strain Dec 9, 2015 $4.9943% (76%)20,000 .. 50,0001.61%04:37 (01:32)
264 Painkiller Hell & Damnation Oct 31, 2012 $19.9943% (76%/64%)500,000 .. 1,000,0000.51%02:06 (01:02)
265 Extravaganza Rising Jul 21, 2016 N/AN/A (N/A)20,000 .. 50,0000%00:00 (00:00)
266 Heaven Forest NIGHTS Mar 13, 2017 $0.9941% (75%)100,000 .. 200,0000.61%02:37 (02:04)
267 Perimeter: Emperor's Testament Aug 29, 2006 $3.99N/A (N/A/72%)20,000 .. 50,0000%00:00 (00:00)
268 Smithy Jun 3, 2016 $3.99N/A (N/A)50,000 .. 100,0000%00:00 (00:00)
269 CivCity: Rome Jul 24, 2006 $9.9941% (75%/67%)50,000 .. 100,0000%00:00 (00:00)
270 Civil War II Sep 17, 2013 $39.9941% (75%)0 .. 20,0000%00:00 (00:00)
271 WARSHIFT Oct 12, 2016 $6.4941% (75%)20,000 .. 50,0000%00:00 (00:00)
272 Rocketbirds 2 Evolution Jan 26, 2017 $9.9941% (75%)20,000 .. 50,0000%00:00 (00:00)
273 Fist Puncher Jun 21, 2013 $9.9941% (75%/73%)20,000 .. 50,0001.19%05:10 (01:43)
274 Monster Monpiece Mar 14, 2017 $19.9941% (75%)0 .. 20,0000%00:00 (00:00)
275 Victory At Sea Aug 8, 2014 $24.9941% (75%)20,000 .. 50,0000%00:00 (00:00)
276 Chaser Aug 22, 2003 $4.9941% (75%/66%)50,000 .. 100,0000.62%00:09 (00:03)
277 Hunting Unlimited 2008 Sep 1, 2007 $9.99N/A (N/A)20,000 .. 50,0000%00:00 (00:00)
278 Z Jul 4, 2014 $6.9941% (75%)100,000 .. 200,0000.54%01:47 (00:45)
279 Onechanbara Z2: Chaos Jun 2, 2016 $39.9941% (75%)0 .. 20,0005.88%01:06 (00:22)
280 Battle Mages: Sign of Darkness Apr 13, 2006 $4.9941% (75%)0 .. 20,0004.76%04:42 (01:34)
281 NOBUNAGA’S AMBITION: Kakushin with Power Up Kit / 信長の野望・革新 with パワーアップキット Jun 25, 2015 $54.9941% (75%)20,000 .. 50,0000%00:00 (00:00)
282 Livelock Aug 30, 2016 $9.9941% (75%/73%)20,000 .. 50,0000%00:00 (00:00)
283 Bubsy Two-Fur Jan 1, 1993 $4.9941% (75%)20,000 .. 50,0000%00:00 (00:00)
284 Platformines Mar 28, 2014 $9.9941% (75%/67%)100,000 .. 200,0000%00:00 (00:00)
285 Spirits of Xanadu Mar 26, 2015 $4.9939% (74%)20,000 .. 50,0001.47%00:51 (00:17)
286 Albino Lullaby: Episode 1 Sep 15, 2015 $9.9939% (74%)20,000 .. 50,0000%00:00 (00:00)
287 Master Reboot Oct 29, 2013 $14.9939% (74%/59%)50,000 .. 100,0000%00:00 (00:00)
288 Commander: The Great War Nov 12, 2012 $29.9939% (74%)0 .. 20,0000%00:00 (00:00)
289 Riddled Corpses Jun 2, 2015 $7.9939% (74%)20,000 .. 50,0000%00:00 (00:00)
290 Smell Of Death Jul 4, 2016 $9.9939% (74%)0 .. 20,0000%00:00 (00:00)
291 Viktor Jun 13, 2014 $7.9939% (74%)20,000 .. 50,0000%00:00 (00:00)
292 TableTop Soccer Apr 22, 2016 $0.9939% (74%)0 .. 20,0000%00:00 (00:00)
293 Distant Worlds: Universe May 23, 2014 $59.9939% (74%/81%)50,000 .. 100,0002.38%12:17 (04:05)
294 Ubersoldier II Jul 22, 2008 $9.9939% (74%/62%)20,000 .. 50,0000%00:00 (00:00)
295 AirMech Command Mar 8, 2017 $19.9938% (73%)0 .. 20,0000%00:00 (00:00)
296 FIVE: Champions of Canaan Sep 27, 2016 $3.9938% (73%)0 .. 20,0003.7%07:19 (02:26)
297 Battle Fleet 2 Nov 20, 2014 $14.9938% (73%)20,000 .. 50,0000%00:00 (00:00)
298 The Aquatic Adventure of the Last Human Jan 19, 2016 $9.9938% (73%/76%)0 .. 20,0000%00:00 (00:00)
299 Vampire of the Sands Jul 17, 2015 $4.9938% (73%)20,000 .. 50,0000%00:00 (00:00)
300 Making History: The Great War Jan 29, 2015 $29.9938% (73%)20,000 .. 50,0000%00:00 (00:00)
301 Cuban Missile Crisis May 6, 2005 $4.9938% (73%)20,000 .. 50,0001.28%00:03 (00:01)
302 Alarameth TD Jun 23, 2015 $4.99N/A (N/A)0 .. 20,0000%00:00 (00:00)
303 Supreme Ruler Ultimate Oct 17, 2014 $19.9938% (73%)20,000 .. 50,0009.52%00:16 (00:10)
304 Divinity: Dragon Commander Aug 6, 2013 $39.9938% (73%)200,000 .. 500,0000.54%00:17 (00:06)
305 Death by Game Show Jan 22, 2016 $9.9938% (73%)20,000 .. 50,0000%00:00 (00:00)
306 Battle Time Sep 29, 2016 $0.9938% (73%)50,000 .. 100,0000.72%01:00 (00:20)
307 FEIST Jul 23, 2015 $9.9938% (73%/65%)20,000 .. 50,0000%00:00 (00:00)
308 Sid Meier’s Ace Patrol Aug 27, 2013 $4.9938% (73%)500,000 .. 1,000,0000%00:00 (00:00)
309 Gold Rush! Anniversary Nov 7, 2014 $5.9938% (73%)100,000 .. 200,0000%00:00 (00:00)
310 Hot Tin Roof: The Cat That Wore A Fedora Feb 20, 2015 $14.9938% (73%/66%)100,000 .. 200,0000%00:00 (00:00)
311 Rex Rocket Aug 5, 2014 $4.9938% (73%)20,000 .. 50,0000%00:00 (00:00)
312 Fatal Fight Jun 10, 2016 $2.9936% (72%)0 .. 20,0000%00:00 (00:00)
313 Airship Dragoon Aug 26, 2014 $19.99N/A (N/A)0 .. 20,0000%00:00 (00:00)
314 Heroes of Arca Feb 16, 2017 Free36% (72%)0 .. 20,0005.88%00:57 (00:19)
315 LEGO Indiana Jones 2: The Adventure Continues Feb 18, 2010 $19.9936% (72%/66%)50,000 .. 100,0001.39%01:20 (00:26)
316 Wildlife Park 2 - Crazy Zoo Mar 30, 2007 $3.99N/A (N/A)20,000 .. 50,0004.55%04:13 (01:24)
317 Retrovirus Jan 31, 2013 $9.9936% (72%/70%)20,000 .. 50,0000%00:00 (00:00)
318 Cast of the Seven Godsends - Redux Jul 20, 2015 $9.9936% (72%)20,000 .. 50,0000%00:00 (00:00)
319 Pick a Hero Jun 9, 2016 $0.99N/A (N/A)0 .. 20,0000%00:00 (00:00)
320 King Arthur - The Role-playing Wargame Nov 24, 2009 $9.9936% (72%)200,000 .. 500,0000%00:00 (00:00)
321 Disney Planes Aug 6, 2013 $19.99N/A (N/A)0 .. 20,0000%00:00 (00:00)
322 Deadnaut Nov 27, 2014 $9.9936% (72%)0 .. 20,0000%00:00 (00:00)
323 Wyv and Keep: The Temple of the Lost Idol Aug 8, 2014 $14.99N/A (N/A)20,000 .. 50,0000%00:00 (00:00)
324 Phoning Home Feb 7, 2017 $19.9936% (72%/61%)20,000 .. 50,0001.45%02:34 (00:51)
325 Elliot Quest Nov 10, 2014 $9.9936% (72%)20,000 .. 50,0000%00:00 (00:00)
326 Elven Legacy Apr 7, 2009 $4.9936% (72%/71%)50,000 .. 100,0000%00:00 (00:00)
327 Civil War: Battle of Petersburg Feb 8, 2017 $0.6236% (72%)0 .. 20,0000%00:00 (00:00)
328 Rise & Shine Jan 13, 2017 $14.9936% (72%)20,000 .. 50,0000%00:00 (00:00)
329 Pike and Shot : Campaigns Aug 13, 2015 $39.9936% (72%)0 .. 20,0000%00:00 (00:00)
330 Lost Planet: Extreme Condition Jun 26, 2007 $14.9936% (72%/66%)200,000 .. 500,0000%00:00 (00:00)
331 Auro: A Monster-Bumping Adventure Apr 13, 2016 $6.9936% (72%)0 .. 20,0000%00:00 (00:00)
332 VRZ: Torment Jun 9, 2016 $9.9936% (72%)0 .. 20,0000%00:00 (00:00)
333 Pongo May 14, 2015 $0.9936% (72%)50,000 .. 100,0000%00:00 (00:00)
334 Codex of Victory Mar 16, 2017 $14.9936% (72%)0 .. 20,0000%00:00 (00:00)
335 There Came an Echo Feb 24, 2015 $14.9935% (71%/58%)20,000 .. 50,0000%00:00 (00:00)
336 The Last Federation Apr 18, 2014 $3.9935% (71%/72%)50,000 .. 100,0001.63%01:16 (00:50)
337 Tom Clancy's EndWar Feb 25, 2009 $9.9935% (71%/68%)50,000 .. 100,0000%00:00 (00:00)
338 Zoo Empire Aug 1, 2004 $6.99N/A (N/A/59%)0 .. 20,0000%00:00 (00:00)
339 REDCON Apr 22, 2016 $5.9935% (71%)0 .. 20,0000%00:00 (00:00)
340 rooMaze Mar 3, 2017 $1.9935% (71%)100,000 .. 200,0000%00:00 (00:00)
341 Cross of the Dutchman Sep 10, 2015 $8.9935% (71%/59%)20,000 .. 50,0000%00:00 (00:00)
342 A.R.E.S.: Extinction Agenda Jan 20, 2011 $4.9935% (71%/68%)100,000 .. 200,0000%00:00 (00:00)
343 Banzai Escape Mar 16, 2016 $5.9935% (71%)20,000 .. 50,0000%00:00 (00:00)
344 Sengoku Jidai: Shadow of the Shogun May 19, 2016 $29.9935% (71%/85%)0 .. 20,0000%00:00 (00:00)
345 Warp Mar 21, 2012 $9.9935% (71%)20,000 .. 50,0000%00:00 (00:00)
346 Strategy & Tactics: Wargame Collection Apr 22, 2016 $9.9933% (70%)20,000 .. 50,0000.97%02:06 (00:42)
347 Brigade E5: New Jagged Union Oct 17, 2006 $3.9933% (70%/41%)0 .. 20,0002.44%00:01 (00:00)
348 Lux Delux May 1, 2015 $4.9933% (70%)20,000 .. 50,0000%00:00 (00:00)
349 BitMaster Oct 12, 2016 $2.9933% (70%)200,000 .. 500,0000.17%04:48 (01:36)
350 Sol 0: Mars Colonization Jan 15, 2016 $3.9931% (69%)20,000 .. 50,0005%01:21 (00:27)
351 The Nightmare Cooperative Jul 16, 2014 $4.9931% (69%)50,000 .. 100,0000%00:00 (00:00)
352 Jagged Alliance 2 - Wildfire Mar 8, 2004 $6.9931% (69%)200,000 .. 500,0000.63%05:33 (06:25)
353 Space Colony: Steam Edition Apr 30, 2015 $14.9931% (69%/74%)20,000 .. 50,0003.13%00:01 (00:00)
354 Incandescent Jun 30, 2015 $0.9931% (69%)20,000 .. 50,0000%00:00 (00:00)
355 The Superfluous May 19, 2017 $4.99N/A (N/A)0 .. 20,0000%00:00 (00:00)
356 Little King's Story Aug 5, 2016 $19.9931% (69%/62%)0 .. 20,0000%00:00 (00:00)
357 8-Bit Commando Jul 27, 2011 $2.9931% (69%)50,000 .. 100,0001.5%00:08 (00:04)
358 Revolution Under Siege Gold Jul 2, 2015 $24.9931% (69%)0 .. 20,0000%00:00 (00:00)
359 Collapse Sep 25, 2008 $19.9931% (69%)20,000 .. 50,0001.02%00:01 (00:00)
360 Panzer Tactics HD May 22, 2014 $9.9931% (69%/69%)20,000 .. 50,0000%00:00 (00:00)
361 Spud's Quest Jul 31, 2014 $7.99N/A (N/A)0 .. 20,0000%00:00 (00:00)
362 The Hive Aug 25, 2016 $9.9930% (68%)20,000 .. 50,0000%00:00 (00:00)
363 Royal Defense Nov 6, 2014 $4.9930% (68%)50,000 .. 100,0000%00:00 (00:00)
364 YAIBA: NINJA GAIDEN Z Mar 21, 2014 $29.9930% (68%/49%)20,000 .. 50,0000%00:00 (00:00)
365 The Living Dungeon Nov 2, 2015 $9.9930% (68%)0 .. 20,0000%00:00 (00:00)
366 Guns n Zombies Oct 30, 2014 $7.9930% (68%)100,000 .. 200,0000.52%00:07 (00:02)
367 Pigmentone Jul 8, 2016 $1.99N/A (N/A)0 .. 20,0000%00:00 (00:00)
368 Othello Aug 5, 2016 $2.4930% (68%)0 .. 20,0000%00:00 (00:00)
369 FIVE: Guardians of David Nov 24, 2015 $9.9930% (68%/66%)20,000 .. 50,0000%00:00 (00:00)
370 ManaCollect Apr 17, 2015 $1.7430% (68%)0 .. 20,0000%00:00 (00:00)
371 Bedlam Oct 13, 2015 $12.9930% (68%/54%)100,000 .. 200,0000%00:00 (00:00)
372 Warrior Kings Apr 13, 2002 $9.9930% (68%/73%)0 .. 20,0000%00:00 (00:00)
373 Kill The Plumber Dec 31, 2015 $4.9928% (67%)0 .. 20,0000%00:00 (00:00)
374 Survivor Squad: Gauntlets Nov 16, 2015 $4.9928% (67%)20,000 .. 50,0002.08%06:09 (02:03)
375 Stonerid Dec 18, 2013 $4.9928% (67%)50,000 .. 100,0000.79%08:15 (02:45)
376 March of the Eagles Feb 18, 2013 $19.9928% (67%/71%)50,000 .. 100,0000%00:00 (00:00)
377 Toy Odyssey: The Lost and Found Sep 20, 2016 $14.9928% (67%/66%)20,000 .. 50,0000%00:00 (00:00)
378 Space Food Truck Mar 25, 2016 $9.9928% (67%)20,000 .. 50,0000%00:00 (00:00)
379 Toren May 11, 2015 $9.9928% (67%/57%)50,000 .. 100,0000%00:00 (00:00)
380 Warhammer 40,000: Armageddon - Da Orks Aug 18, 2016 $19.99N/A (N/A)0 .. 20,0000%00:00 (00:00)
381 Alea Jacta Est Sep 27, 2012 $24.9928% (67%)0 .. 20,0003.45%00:33 (00:11)
382 Zafehouse: Diaries Sep 6, 2013 $1.9928% (67%)50,000 .. 100,0000%00:00 (00:00)
383 Infinity Runner Jul 14, 2014 $6.9928% (67%/56%)0 .. 20,0000%00:00 (00:00)
384 Chainsaw Warrior Oct 7, 2013 $4.9928% (67%)100,000 .. 200,0000%00:00 (00:00)
385 Mad Combat Marines Jul 13, 2016 $0.9927% (66%)20,000 .. 50,0001.25%02:30 (00:50)
386 1849 May 8, 2014 $14.9927% (66%)20,000 .. 50,0000%00:00 (00:00)
387 Fair Strike Feb 5, 2004 $3.99N/A (N/A/56%)0 .. 20,0000%00:00 (00:00)
388 Zombie Camp Aug 1, 2016 $1.99N/A (N/A)0 .. 20,0000%00:00 (00:00)
389 Commander Cool 2 Dec 17, 2015 $2.9927% (66%)20,000 .. 50,0001.12%00:57 (00:19)
390 Urban Pirate Jun 17, 2016 $6.99N/A (N/A)0 .. 20,0000%00:00 (00:00)
391 1775: Rebellion Sep 29, 2016 $24.99N/A (N/A)0 .. 20,0002%02:10 (00:43)
392 Sky To Fly: Faster Than Wind Mar 25, 2016 $3.9927% (66%)0 .. 20,0000%00:00 (00:00)
393 Zombie City Defense 2 Aug 19, 2016 $9.9927% (66%)0 .. 20,0000%00:00 (00:00)
394 RISK: Factions Mar 8, 2011 $9.9927% (66%/77%)50,000 .. 100,0000%00:00 (00:00)
395 Nomad Fleet Jul 14, 2015 $9.9927% (66%)0 .. 20,0000%00:00 (00:00)
396 Assassin’s Creed Chronicles: India Jan 12, 2016 $9.9927% (66%)50,000 .. 100,0001.35%03:34 (01:11)
397 Quick Slick Deadly Sep 21, 2015 $1.9927% (66%)20,000 .. 50,0000%00:00 (00:00)
398 Sengoku Sep 15, 2011 $9.9927% (66%/70%)100,000 .. 200,0000.79%03:47 (01:15)
399 Scourge: Outbreak Apr 2, 2014 $7.9927% (66%)100,000 .. 200,0000%00:00 (00:00)
400 Disney Pirates of the Caribbean: At Worlds End May 22, 2007 $19.9925% (65%)0 .. 20,0000%00:00 (00:00)
401 Theatre of War 2: Africa 1943 Apr 24, 2009 $4.9925% (65%/63%)100,000 .. 200,0000%00:00 (00:00)
402 Ground Breakers Jun 15, 2016 $4.99N/A (N/A)0 .. 20,0000%00:00 (00:00)
403 7th Legion Jan 1, 1997 $6.9925% (65%)0 .. 20,0000%00:00 (00:00)
404 Zombie Tycoon 2: Brainhov's Revenge Dec 9, 2013 $4.9925% (65%)50,000 .. 100,0000%00:00 (00:00)
405 Marauder Sep 10, 2009 $9.9925% (65%)20,000 .. 50,0000%00:00 (00:00)
406 NOBUNAGA'S AMBITION: Tendou with Power Up Kit / 信長の野望・天道 with パワーアップキット Jun 25, 2015 $54.99N/A (N/A)0 .. 20,0000%00:00 (00:00)
407 Men of War: Condemned Heroes Apr 12, 2012 $7.9925% (65%/57%)100,000 .. 200,0000%00:00 (00:00)
408 The Seven Years War (1756-1763) Oct 30, 2015 $19.9925% (65%)0 .. 20,0000%00:00 (00:00)
409 Link Apr 22, 2016 $4.99N/A (N/A)0 .. 20,0000%00:00 (00:00)
410 Zoo Rampage Jul 9, 2014 $3.9924% (64%)0 .. 20,0004.55%03:02 (01:00)
411 Kaiju-A-GoGo Apr 23, 2015 $9.9924% (64%)20,000 .. 50,0000%00:00 (00:00)
412 Theatre of War 2: Kursk 1943 Mar 9, 2010 $4.9924% (64%)50,000 .. 100,0000%00:00 (00:00)
413 Frozen Synapse Prime Nov 14, 2014 $24.9924% (64%/83%)100,000 .. 200,0000%00:00 (00:00)
414 Hunters Of The Dead Sep 4, 2014 $4.9924% (64%)20,000 .. 50,0000%00:00 (00:00)
415 Devil's Dare 悪魔の挑戦 Oct 21, 2014 $12.9924% (64%)20,000 .. 50,0000%00:00 (00:00)
416 Jagged Alliance: Crossfire Aug 24, 2012 $14.9924% (64%/63%)100,000 .. 200,0000%00:00 (00:00)
417 Revenge of Roger Rouge Apr 22, 2016 $0.99N/A (N/A)20,000 .. 50,0000%00:00 (00:00)
418 Warlock 2: The Exiled Apr 10, 2014 $19.9924% (64%/73%)50,000 .. 100,0001.39%02:56 (00:58)
419 Double Dragon IV Jan 30, 2017 $6.9923% (63%/50%)0 .. 20,0007.14%00:01 (00:00)
420 Overruled! Sep 15, 2015 $12.9923% (63%)20,000 .. 50,0000%00:00 (00:00)
421 A Game of Dwarves Oct 23, 2012 $9.9923% (63%/60%)50,000 .. 100,0000.79%00:04 (00:01)
422 Pixel Boy and the Ever Expanding Dungeon May 30, 2014 $0.9923% (63%)20,000 .. 50,0000%00:00 (00:00)
423 Port Royale 2 Apr 30, 2004 $4.9923% (63%/75%)50,000 .. 100,0000%00:00 (00:00)
424 Battle Worlds: Kronos Nov 4, 2013 $19.9923% (63%/71%)20,000 .. 50,0003.33%07:17 (02:25)
425 Beasts Battle Jun 15, 2016 $1.9923% (63%)0 .. 20,0000%00:00 (00:00)
426 Will Fight for Food: Super Actual Sellout: Game of the Hour Apr 22, 2015 $5.9923% (63%)0 .. 20,0000%00:00 (00:00)
427 Malebolgia May 6, 2015 $12.9923% (63%)0 .. 20,0000%00:00 (00:00)
428 Platypus II Mar 17, 2007 $6.9923% (63%)200,000 .. 500,0000%00:00 (00:00)
429 The Few Jun 18, 2014 $7.9923% (63%)20,000 .. 50,0000%00:00 (00:00)
430 Hyperspace Pinball Sep 30, 2015 $2.99N/A (N/A)0 .. 20,0000%00:00 (00:00)
431 My Super Tower 2 Jan 27, 2017 $0.4922% (62%)0 .. 20,0004.88%02:17 (01:31)
432 Disney Epic Mickey 2: The Power of Two Nov 18, 2012 $19.9922% (62%)0 .. 20,0000%00:00 (00:00)
433 To End All Wars Aug 29, 2014 $39.9922% (62%/71%)0 .. 20,0000%00:00 (00:00)
434 SPACECOM Sep 17, 2014 $9.9922% (62%/68%)100,000 .. 200,0003.03%01:33 (01:22)
435 Spirit of War Mar 12, 2015 $9.9922% (62%)20,000 .. 50,0000%00:00 (00:00)
436 Goblin Defenders: Steel‘n’ Wood Aug 21, 2013 $2.9922% (62%)20,000 .. 50,0000%00:00 (00:00)
437 Rise: Battle Lines Nov 17, 2015 $1.9922% (62%)0 .. 20,0000%00:00 (00:00)
438 4089: Ghost Within Jan 9, 2015 $5.9922% (62%)0 .. 20,0000%00:00 (00:00)
439 UnSummoning: the Spectral Horde Dec 21, 2015 FreeN/A (N/A)0 .. 20,0009.09%20:30 (06:50)
440 Sorcerer King: Rivals Sep 22, 2016 $13.4922% (62%)20,000 .. 50,0000%00:00 (00:00)
441 Desert Ashes Nov 10, 2014 $4.9922% (62%)20,000 .. 50,0000%00:00 (00:00)
442 Gnumz: Masters of Defense Dec 21, 2015 $4.9921% (61%)20,000 .. 50,0000.79%02:59 (01:59)
443 Freight Tycoon Inc. Aug 15, 2007 $4.9921% (61%)20,000 .. 50,0000%00:00 (00:00)
444 Disciples III - Renaissance Steam Special Edition Jul 16, 2010 $14.9921% (61%/56%)100,000 .. 200,0000%00:00 (00:00)
445 Men of War: Vietnam Sep 8, 2011 $7.9921% (61%/68%)100,000 .. 200,0001.09%00:06 (00:03)
446 Purgatory Jun 22, 2016 $0.9921% (61%)200,000 .. 500,0000.36%03:11 (02:48)
447 War, the Game Jan 12, 2015 $6.9921% (61%/65%)20,000 .. 50,0000%00:00 (00:00)
448 Spice Road Apr 24, 2014 $19.9921% (61%)0 .. 20,0000%00:00 (00:00)
449 Call of Duty: Black Ops - Mac Edition Sep 27, 2012 $19.9921% (61%)50,000 .. 100,0001.69%00:01 (00:00)
450 Bombshell Jan 29, 2016 $34.9921% (61%)20,000 .. 50,00011.48%03:45 (04:26)
451 Legions of Steel Jul 16, 2015 $19.99N/A (N/A/64%)0 .. 20,0000%00:00 (00:00)
452 Supreme Ruler: Cold War Jul 29, 2011 $9.9921% (61%/63%)20,000 .. 50,0000%00:00 (00:00)
453 NOBUNAGA'S AMBITION: Sphere of Influence - Ascension / 信長の野望・創造 戦国立志伝 Mar 23, 2016 $59.9920% (60%)100,000 .. 200,0000%00:00 (00:00)
454 Woolfe - The Red Hood Diaries Mar 17, 2015 $9.9920% (60%/55%)50,000 .. 100,0000%00:00 (00:00)
455 Flashback Oct 1, 2013 $9.9920% (60%)20,000 .. 50,0000%00:00 (00:00)
456 Assault on Arnhem Mar 11, 2016 $9.99N/A (N/A)0 .. 20,0000%00:00 (00:00)
457 Close Combat - Panthers in the Fog Nov 19, 2012 $39.9920% (60%)0 .. 20,0000%00:00 (00:00)
458 Defend Your Crypt Jul 21, 2016 $2.99N/A (N/A)0 .. 20,0000%00:00 (00:00)
459 Merchants of Kaidan Nov 10, 2014 $14.9920% (60%)100,000 .. 200,0000.25%02:42 (00:54)
460 BattleLore: Command Nov 25, 2014 $6.9920% (60%)0 .. 20,0000%00:00 (00:00)
461 Wanderlust Adventures Aug 10, 2015 $9.9918% (59%)20,000 .. 50,0000%00:00 (00:00)
462 Heavy Fire: Afghanistan Aug 15, 2014 $2.9918% (59%)20,000 .. 50,0000%00:00 (00:00)
463 Code of Princess Apr 14, 2016 $14.9918% (59%/53%)0 .. 20,0000%00:00 (00:00)
464 E.T. Armies Mar 3, 2016 $14.9918% (59%/54%)0 .. 20,0000%00:00 (00:00)
465 Patrician IV - Steam Special Edition Sep 17, 2010 $14.9918% (59%/66%)100,000 .. 200,0000%00:00 (00:00)
466 Ninjahtic Mind Tricks Jul 16, 2015 $1.99N/A (N/A)0 .. 20,0000%00:00 (00:00)
467 Skyshine's BEDLAM Sep 16, 2015 $19.9918% (59%/67%)20,000 .. 50,0000%00:00 (00:00)
468 Antisquad Oct 31, 2014 $5.9918% (59%)50,000 .. 100,0000%00:00 (00:00)
469 Battleplan: American Civil War Jul 4, 2014 $9.9918% (59%/66%)100,000 .. 200,0000%00:00 (00:00)
470 Armada 2526 Gold Edition Feb 28, 2013 $19.9918% (59%/66%)20,000 .. 50,0000%00:00 (00:00)
471 7 Grand Steps: What Ancients Begat Jun 7, 2013 $19.9918% (59%)100,000 .. 200,0000%00:00 (00:00)
472 Prospekt Feb 18, 2016 $9.9918% (59%)20,000 .. 50,0000%00:00 (00:00)
473 Quarantine Feb 9, 2017 $9.9918% (59%)0 .. 20,0000%00:00 (00:00)
474 Colonial Conquest Jul 28, 2015 $9.9917% (58%)0 .. 20,0000%00:00 (00:00)
475 Check vs Mate Aug 16, 2012 $19.9917% (58%/69%)0 .. 20,0000.88%00:01 (00:00)
476 Prophour23 Oct 22, 2014 $9.9917% (58%)0 .. 20,0000%00:00 (00:00)
477 Life in Bunker Feb 25, 2016 $15.9917% (58%)0 .. 20,0000%00:00 (00:00)
478 Sir! I'd Like To Report A Bug! Oct 19, 2015 $1.99N/A (N/A)0 .. 20,0000%00:00 (00:00)
479 Woodle Tree 2: Worlds Sep 16, 2016 $3.9917% (58%)50,000 .. 100,0000%00:00 (00:00)
480 Gates of Horizon Dec 18, 2014 $9.9917% (58%)0 .. 20,0005.88%01:30 (00:30)
481 Ceres Oct 16, 2015 $19.9917% (58%/74%)0 .. 20,0008.33%03:02 (01:00)
482 Cemetery Warrior 3 Feb 3, 2017 $0.9917% (58%)50,000 .. 100,0000%00:00 (00:00)
483 Unearthed: Trail of Ibn Battuta - Episode 1 - Gold Edition Jan 3, 2014 $4.9916% (57%)20,000 .. 50,0000%00:00 (00:00)
484 DreamBreak Jul 21, 2016 $6.9916% (57%/46%)20,000 .. 50,0000%00:00 (00:00)
485 Horizon Feb 6, 2014 $29.9915% (56%/58%)50,000 .. 100,0000%00:00 (00:00)
486 Delve Deeper Sep 24, 2010 $4.9915% (56%)50,000 .. 100,0000.78%00:01 (00:00)
487 Super Helmets on Fire DX Ultra Edition Plus Alpha Feb 15, 2016 $0.99N/A (N/A)0 .. 20,0000%00:00 (00:00)
488 Stay Dead Evolution Feb 4, 2015 $5.9915% (56%)20,000 .. 50,0001.39%04:10 (01:23)
489 Abalone Apr 23, 2014 $6.9915% (56%)20,000 .. 50,0002.56%05:45 (01:55)
490 Story Of the Survivor Feb 17, 2016 $2.99N/A (N/A)50,000 .. 100,0000%00:00 (00:00)
491 Rise of Venice Sep 27, 2013 $19.9915% (56%/66%)50,000 .. 100,0000%00:00 (00:00)
492 Crazy Forest Jul 6, 2016 $4.9915% (56%)100,000 .. 200,0000.39%00:03 (00:01)
493 Adventure World Aug 2, 2016 $4.99N/A (N/A)0 .. 20,0000%00:00 (00:00)
494 reconquest Dec 16, 2016 $4.7915% (55%)0 .. 20,0000%00:00 (00:00)
495 Pain Train Jan 11, 2017 $0.9915% (55%)50,000 .. 100,0001.16%15:11 (10:04)
496 VR Journey Dec 15, 2016 $2.99N/A (N/A)20,000 .. 50,0000%00:00 (00:00)
497 BC Kings Sep 15, 2008 $4.9914% (54%)20,000 .. 50,0000%00:00 (00:00)
498 Urja Jan 9, 2015 $9.9914% (54%)20,000 .. 50,0000%00:00 (00:00)
499 RESCUE 2: Everyday Heroes Jun 3, 2015 $19.9914% (54%)20,000 .. 50,0000%00:00 (00:00)
500 Crusaders: Thy Kingdom Come Oct 8, 2009 $9.99N/A (N/A)0 .. 20,0000%00:00 (00:00)
501 Dawn of Andromeda May 4, 2017 $29.9914% (54%/70%)0 .. 20,00010%03:02 (01:00)
502 Smugglers 5 Apr 11, 2014 $6.9913% (53%)20,000 .. 50,0000%00:00 (00:00)
503 Tic-Toc-Tower Sep 28, 2015 $2.9913% (53%)0 .. 20,0000%00:00 (00:00)
504 Wickland Nov 14, 2014 $0.9913% (53%)50,000 .. 100,0000%00:00 (00:00)
505 Armada 2526 Jun 10, 2010 $14.99N/A (N/A/66%)0 .. 20,0000%00:00 (00:00)
506 MDK2 HD Jul 30, 2012 $14.9913% (53%/73%)0 .. 20,0000%00:00 (00:00)
507 Sovereignty: Crown of Kings Feb 2, 2017 $24.9913% (53%)0 .. 20,0000%00:00 (00:00)
508 Castle Werewolf 3D Feb 7, 2017 $2.9913% (53%)50,000 .. 100,0000.25%00:19 (00:06)
509 MinosMaze - The Minotaur's Labyrinth May 1, 2017 $4.99N/A (N/A)0 .. 20,0003.33%00:01 (00:00)
510 Weather Lord: The Successor's Path Apr 8, 2015 $4.99N/A (N/A)0 .. 20,0000%00:00 (00:00)
511 Meridian: Squad 22 Aug 11, 2016 $14.9913% (52%)0 .. 20,0000%00:00 (00:00)
512 Dusty Revenge:Co-Op Edition Feb 17, 2014 $14.9913% (52%)50,000 .. 100,0000%00:00 (00:00)
513 The Stalin Subway Oct 5, 2006 $3.9913% (52%)0 .. 20,0002.63%00:01 (00:00)
514 Grim Seventh Jan 20, 2017 FreeN/A (N/A)0 .. 20,0000%00:00 (00:00)
515 Meridian: New World Apr 4, 2014 $6.9912% (51%/43%)50,000 .. 100,0000.68%00:49 (00:16)
516 Biodrone Battle Jul 16, 2015 $1.9912% (51%)100,000 .. 200,0000%00:00 (00:00)
517 Royal Bounty HD Aug 10, 2015 $2.9912% (51%)0 .. 20,0000%00:00 (00:00)
518 Nightside Apr 2, 2015 $4.9912% (51%)20,000 .. 50,0000%00:00 (00:00)
519 Scapeland Mar 31, 2016 $3.9911% (50%)0 .. 20,0000%00:00 (00:00)
520 Defence to death May 11, 2017 $1.99N/A (N/A)50,000 .. 100,0000.54%04:10 (01:24)
521 Chronostorm: Siberian Border Apr 2, 2009 $0.99N/A (N/A)0 .. 20,0000%00:00 (00:00)
522 Guncraft Aug 9, 2013 $14.9911% (50%/73%)100,000 .. 200,0000%00:00 (00:00)
523 Aggression: Europe Under Fire May 10, 2007 $9.9911% (50%)0 .. 20,0000%00:00 (00:00)
524 No Pineapple Left Behind Feb 18, 2016 $6.99N/A (N/A/59%)0 .. 20,0000%00:00 (00:00)
525 Kidnapped Aug 4, 2015 $2.9911% (49%)100,000 .. 200,0000.27%00:46 (00:15)
526 Albedo: Eyes from Outer Space Apr 10, 2015 $14.9911% (49%/66%)50,000 .. 100,0000%00:00 (00:00)
527 Synonymy Dec 12, 2014 $1.9910% (48%)0 .. 20,0000%00:00 (00:00)
528 Rubber and Lead Sep 4, 2015 $4.9910% (48%)20,000 .. 50,0000%00:00 (00:00)
529 Star Traders: 4X Empires Nov 18, 2014 $9.9910% (48%)0 .. 20,0000%00:00 (00:00)
530 Marvel: Ultimate Alliance 2 Jul 26, 2016 N/A10% (48%)0 .. 20,0000%00:00 (00:00)
531 Hero Generations Apr 10, 2015 $5.9910% (47%)0 .. 20,0000%00:00 (00:00)
532 Disposable Heroes Oct 1, 2015 $4.9910% (47%)20,000 .. 50,0000%00:00 (00:00)
533 Aegis Oct 6, 2016 $2.99N/A (N/A)0 .. 20,0000%00:00 (00:00)
534 Z Steel Soldiers Aug 1, 2014 $12.9910% (47%)50,000 .. 100,0000%00:00 (00:00)
535 Odd||Even Apr 6, 2016 $0.9910% (47%)20,000 .. 50,0000%00:00 (00:00)
536 Hell Nov 13, 2014 $29.99N/A (N/A)0 .. 20,0000%00:00 (00:00)
537 The Stalin Subway: Red Veil Oct 5, 2006 $2.9910% (47%)20,000 .. 50,0000%00:00 (00:00)
538 Blasting Agent: Ultimate Edition Aug 17, 2016 $2.99N/A (N/A)0 .. 20,0000%00:00 (00:00)
539 Crossfire: Dungeons Jan 15, 2007 $3.999% (46%)0 .. 20,0000%00:00 (00:00)
540 Magic Quest May 6, 2016 $1.99N/A (N/A)50,000 .. 100,0000%00:00 (00:00)
541 ALONE IN SPACE Feb 27, 2016 $9.999% (46%)0 .. 20,0000%00:00 (00:00)
542 PeriAreion Feb 19, 2015 $5.99N/A (N/A)0 .. 20,0000%00:00 (00:00)
543 Carrier Command: Gaea Mission Sep 28, 2012 $32.999% (46%/60%)200,000 .. 500,0000%00:00 (00:00)
544 HitBox Jan 30, 2017 Free9% (46%)0 .. 20,0002.63%00:58 (00:19)
545 Megamagic: Wizards of the Neon Age Apr 20, 2016 $9.999% (46%/67%)20,000 .. 50,0000%00:00 (00:00)
546 Pride of Nations Jun 8, 2011 $19.999% (46%/70%)20,000 .. 50,0000%00:00 (00:00)
547 World War 2: Time of Wrath Jun 15, 2009 $4.999% (46%)20,000 .. 50,0000%00:00 (00:00)
548 Battle Chess: Game of Kings Dec 11, 2015 $29.998% (45%)0 .. 20,0000%00:00 (00:00)
549 The Campaign Series: Fall Weiss May 30, 2014 $14.99N/A (N/A)20,000 .. 50,0000%00:00 (00:00)
550 Impire Feb 14, 2013 $19.998% (45%/45%)100,000 .. 200,0000%00:00 (00:00)
551 Skyward Collapse May 23, 2013 $0.998% (45%/64%)100,000 .. 200,0000%00:00 (00:00)
552 Island Defense Jul 23, 2015 $1.998% (44%)50,000 .. 100,0000%00:00 (00:00)
553 Redemption: Saints And Sinners Nov 18, 2016 $0.998% (44%)50,000 .. 100,0000.37%34:13 (11:24)
554 The Bluecoats: North vs South May 10, 2012 $4.998% (44%)20,000 .. 50,0000%00:00 (00:00)
555 Commander: Conquest of the Americas Jul 30, 2010 $9.998% (44%/68%)50,000 .. 100,0000%00:00 (00:00)
556 Dungeons Feb 10, 2011 $9.998% (43%/65%)200,000 .. 500,0000%00:00 (00:00)
557 Vendetta - Curse of Raven's Cry Nov 20, 2015 $29.998% (43%)0 .. 20,0002.7%01:07 (00:22)
558 Rulers of Nations Jul 16, 2014 $19.998% (43%/63%)0 .. 20,0000%00:00 (00:00)
559 The Entente Gold Aug 11, 2003 $0.598% (43%)20,000 .. 50,0000%00:00 (00:00)
560 Burstfire Sep 24, 2015 N/A7% (42%)50,000 .. 100,0000%00:00 (00:00)
561 Nux Dec 26, 2006 $6.997% (42%)200,000 .. 500,0000%00:00 (00:00)
562 Sword of the Stars II: Enhanced Edition Nov 30, 2012 $19.997% (42%/65%)100,000 .. 200,0000%00:00 (00:00)
563 Samudai Feb 9, 2015 $2.997% (42%)20,000 .. 50,0000%00:00 (00:00)
564 Pain Train 2 Mar 16, 2017 $0.697% (41%)20,000 .. 50,0002.6%03:10 (02:03)
565 Hydraulic Empire Jul 31, 2015 $7.997% (41%)0 .. 20,0000%00:00 (00:00)
566 Strategic War in Europe Mar 21, 2014 $14.996% (40%)20,000 .. 50,0000%00:00 (00:00)
567 Knight Adventure Oct 15, 2015 $0.99N/A (N/A)50,000 .. 100,0000%00:00 (00:00)
568 The Kings' Crusade Oct 8, 2010 $9.996% (40%/71%)50,000 .. 100,0000%00:00 (00:00)
569 Heavy Fire: Shattered Spear Oct 23, 2015 $3.99N/A (N/A)0 .. 20,0000%00:00 (00:00)
570 Mechs & Mercs: Black Talons Jan 9, 2015 $9.996% (39%)0 .. 20,0000%00:00 (00:00)
571 Wave of Darkness Nov 5, 2015 $29.996% (39%)0 .. 20,0000%00:00 (00:00)
572 Dungeons - The Dark Lord Sep 27, 2011 $19.996% (39%/72%)100,000 .. 200,0000%00:00 (00:00)
573 Risk Jun 10, 2013 $9.996% (39%)20,000 .. 50,0000%00:00 (00:00)
574 Gratuitous Space Battles 2 Apr 16, 2015 $9.996% (39%)20,000 .. 50,0000%00:00 (00:00)
575 Dark Matter Oct 17, 2013 $9.996% (39%)0 .. 20,0000%00:00 (00:00)
576 Devils & Demons Oct 6, 2015 $9.996% (39%)20,000 .. 50,0000%00:00 (00:00)
577 Control Craft 2 Feb 15, 2016 $2.996% (38%)0 .. 20,0003.92%04:04 (01:51)
578 Dead But Alive! Southern England Oct 2, 2015 $14.996% (38%)0 .. 20,0000%00:00 (00:00)
579 Lost in Paradise Aug 20, 2015 $2.996% (38%)20,000 .. 50,0000%00:00 (00:00)
580 Infection: Humanity's Last Gasp May 26, 2016 $9.99N/A (N/A)0 .. 20,0000%00:00 (00:00)
581 Stellar Impact Apr 12, 2012 $9.995% (37%/74%)50,000 .. 100,0000%00:00 (00:00)
582 Zombie Apocalypse: Escape The Undead City Nov 25, 2013 $0.55% (37%)0 .. 20,0000%00:00 (00:00)
583 Tiamat X May 29, 2015 $1.995% (37%)50,000 .. 100,0000%00:00 (00:00)
584 Blue Sheep Mar 31, 2016 $1.99N/A (N/A)0 .. 20,0000%00:00 (00:00)
585 Shadows of War Sep 19, 2014 $2.995% (35%)20,000 .. 50,0000%00:00 (00:00)
586 Urban Empire Jan 20, 2017 $29.995% (35%/62%)50,000 .. 100,0002.17%00:18 (00:06)
587 Sim Junta Aug 18, 2015 $1.995% (35%)0 .. 20,0000%00:00 (00:00)
588 CTU: Counter Terrorism Unit Apr 22, 2016 $1.494% (34%)0 .. 20,0000%00:00 (00:00)
589 Into the Void Dec 4, 2015 $4.99N/A (N/A)20,000 .. 50,0000%00:00 (00:00)
590 Fallen: A2P Protocol Aug 14, 2015 $9.994% (34%)20,000 .. 50,0000%00:00 (00:00)
591 Disciples III - Resurrection Oct 11, 2011 $14.994% (34%/63%)100,000 .. 200,0000%00:00 (00:00)
592 Arma Tactics Oct 1, 2013 $8.994% (34%/47%)200,000 .. 500,0000.4%00:01 (00:00)
593 Ranger of the jungle Jul 16, 2016 $3.99N/A (N/A)0 .. 20,0000%00:00 (00:00)
594 Jagged Alliance Flashback Oct 21, 2014 $19.994% (33%)20,000 .. 50,0000%00:00 (00:00)
595 Kick-Ass 2 Aug 15, 2014 $19.994% (33%)20,000 .. 50,0000%00:00 (00:00)
596 Ku: Shroud of the Morrigan Mar 17, 2014 $4.99N/A (N/A)20,000 .. 50,0000%00:00 (00:00)
597 Psichodelya Aug 8, 2014 $1.993% (31%)100,000 .. 200,0000%00:00 (00:00)
598 Zombie Zoeds May 20, 2015 $2.993% (31%)200,000 .. 500,0005.29%03:49 (01:30)
599 Evopollution Apr 23, 2014 $4.993% (31%)0 .. 20,0000%00:00 (00:00)
600 A Game of Thrones - Genesis Sep 29, 2011 $9.993% (31%)100,000 .. 200,0000.81%00:17 (00:05)
601 Ground Pounders Jul 15, 2014 $4.99N/A (N/A)0 .. 20,0000%00:00 (00:00)
602 Power of Defense Aug 4, 2010 $9.99N/A (N/A)0 .. 20,0000%00:00 (00:00)
603 Robotex Nov 18, 2014 $4.993% (30%)100,000 .. 200,0000%00:00 (00:00)
604 Defenders of Time Nov 4, 2014 N/AN/A (N/A/55%)0 .. 20,0000%00:00 (00:00)
605 Tank Operations: European Campaign Nov 22, 2013 $19.993% (29%)20,000 .. 50,0000%00:00 (00:00)
606 Zombies on a Plane Mar 25, 2016 $4.993% (28%)0 .. 20,0000%00:00 (00:00)
607 Solar Shifter EX Sep 11, 2015 $4.993% (27%)20,000 .. 50,0000%00:00 (00:00)
608 Gridberd Sep 7, 2015 $1.393% (27%)200,000 .. 500,0000%00:00 (00:00)
609 Hard Truck Apocalypse: Arcade / Ex Machina: Arcade May 24, 2007 $4.992% (25%)20,000 .. 50,0000%00:00 (00:00)
610 One Star Apr 17, 2017 $2.992% (25%)50,000 .. 100,0000%00:00 (00:00)
611 APOX Jan 20, 2011 $14.992% (23%/48%)20,000 .. 50,0000%00:00 (00:00)
612 Elite vs. Freedom May 31, 2016 $0.842% (23%)0 .. 20,0000%00:00 (00:00)
613 Lords of the Black Sun Sep 12, 2014 $29.992% (21%)20,000 .. 50,0000%00:00 (00:00)
614 The Asskickers-Steam Edition Feb 6, 2015 $9.992% (21%)0 .. 20,0000%00:00 (00:00)
615 Gemini Wars Nov 2, 2012 $14.992% (20%/53%)20,000 .. 50,0000%00:00 (00:00)
616 Star Project Aug 4, 2016 $1.992% (19%)100,000 .. 200,0000.4%03:02 (01:00)
617 Human Extinction Simulator Jan 21, 2015 $19.99N/A (N/A)0 .. 20,0000%00:00 (00:00)
618 Tryst Sep 14, 2012 $14.99N/A (N/A/50%)0 .. 20,0000%00:00 (00:00)
619 Prison Tycoon 3: Lockdown Aug 1, 2007 $9.992% (17%)20,000 .. 50,0000%00:00 (00:00)
620 Once Bitten, Twice Dead! Jul 17, 2015 $4.991% (13%)20,000 .. 50,0000%00:00 (00:00)
621 Citadels Jul 25, 2013 $14.991% (13%/20%)20,000 .. 50,0000%00:00 (00:00)
622 Bloodbath Jun 16, 2014 $14.99N/A (N/A)0 .. 20,0000%00:00 (00:00)
623 Magnetic By Nature Nov 10, 2014 $9.99N/A (N/A)20,000 .. 50,0000%00:00 (00:00)

Tags over time:

Access restricted.

This feature is only available to users with special access rights. Sorry.

If you want to proceed, you need to register or log in first and then back Steam Spy on Patreon. Look for Indie or Pro pledge.

Don't forget to use the same email as on Steam Spy!

Owners of this game also own:

Access restricted.

This feature is only available to users with special access rights. Sorry.

If you want to proceed, you need to register or log in first and then back Steam Spy on Patreon. Look for Indie or Pro pledge.

Don't forget to use the same email as on Steam Spy!

Playtime distribution:

Access restricted.

This feature is only available to users with special access rights. Sorry.

If you want to proceed, you need to register or log in first and then back Steam Spy on Patreon. Look for Indie or Pro pledge.

Don't forget to use the same email as on Steam Spy!

Playtime (2 weeks):

Access restricted.

This feature is only available to users with special access rights. Sorry.

If you want to proceed, you need to register or log in first and then back Steam Spy on Patreon. Look for Indie or Pro pledge.

Don't forget to use the same email as on Steam Spy!

User reviews:

Login required.

Please register or log in to see this information.